createdAt,value
2018-11-21T00:09:02.316Z,4.80
2018-11-21T00:16:25.544Z,4.70
2018-11-21T00:18:53.281Z,4.70
2018-11-21T00:23:49.927Z,4.70
2018-11-21T00:26:17.640Z,4.70
2018-11-21T00:28:45.384Z,4.70
2018-11-21T00:31:13.752Z,4.70
2018-11-21T00:36:09.636Z,4.70
2018-11-21T00:38:37.032Z,4.60
2018-11-21T00:55:51.370Z,4.70
2018-11-21T01:08:10.450Z,4.70
2018-11-21T01:15:33.988Z,4.50
2018-11-21T01:27:53.281Z,4.40
2018-11-21T01:32:49.541Z,4.40
2018-11-21T01:37:45.272Z,4.30
2018-11-21T01:40:13.015Z,4.30
2018-11-21T01:47:36.976Z,4.40
2018-11-21T02:07:18.245Z,4.50
2018-11-21T02:41:46.981Z,4.30
2018-11-21T02:51:39.246Z,4.30
2018-11-21T02:54:07.247Z,4.30
2018-11-21T02:59:20.783Z,4.30
2018-11-21T03:01:48.985Z,4.20
2018-11-21T03:04:17.264Z,4.20
2018-11-21T03:06:44.972Z,4.20
2018-11-21T03:09:13.111Z,4.30
2018-11-21T03:11:40.170Z,4.30
2018-11-21T03:14:07.864Z,4.30
2018-11-21T03:16:36.608Z,4.30
2018-11-21T03:19:06.627Z,4.30
2018-11-21T03:24:02.477Z,4.20
2018-11-21T03:26:30.230Z,4.10
2018-11-21T03:28:58.261Z,4.10
2018-11-21T03:31:25.596Z,4.10
2018-11-21T03:33:57.737Z,4.20
2018-11-21T03:36:21.014Z,4.10
2018-11-21T03:38:48.510Z,4.10
2018-11-21T03:41:16.642Z,4.10
2018-11-21T03:43:44.836Z,4.10
2018-11-21T03:46:13.007Z,4.10
2018-11-21T03:48:41.741Z,4.10
2018-11-21T03:51:09.959Z,4.10
2018-11-21T03:53:37.669Z,4.20
2018-11-21T03:56:05.289Z,4.10
2018-11-21T03:58:32.823Z,4.10
2018-11-21T04:01:00.788Z,4.10
2018-11-21T04:03:28.771Z,4.10
2018-11-21T04:05:56.885Z,4.10
2018-11-21T04:08:24.282Z,4.00
2018-11-21T04:10:51.738Z,4.00
2018-11-21T04:13:19.081Z,4.10
2018-11-21T04:18:13.911Z,4.10
2018-11-21T04:20:41.999Z,4.10
2018-11-21T04:23:10.560Z,4.10
2018-11-21T04:25:38.274Z,4.10
2018-11-21T04:28:05.923Z,4.10
2018-11-21T04:30:33.730Z,4.10
2018-11-21T04:35:28.529Z,4.00
2018-11-21T04:37:56.313Z,4.00
2018-11-21T04:42:51.229Z,4.00
2018-11-21T04:45:19.364Z,4.10
2018-11-21T04:47:47.468Z,3.90
2018-11-21T04:50:15.522Z,3.90
2018-11-21T04:55:10.892Z,3.80
2018-11-21T05:02:35.419Z,3.90
2018-11-21T05:19:48.752Z,3.90
2018-11-21T05:29:40.368Z,4.00
2018-11-21T05:32:08.413Z,3.90
2018-11-21T05:34:36.514Z,3.90
2018-11-21T05:39:32.126Z,3.90
2018-11-21T05:44:31.399Z,4.10
2018-11-21T05:46:55.539Z,4.10
2018-11-21T05:49:23.995Z,4.00
2018-11-21T05:51:52.579Z,4.10
2018-11-21T05:54:20.316Z,4.00
2018-11-21T05:56:48.461Z,3.90
2018-11-21T05:59:16.500Z,4.00
2018-11-21T06:06:40.334Z,3.90
2018-11-21T06:09:10.156Z,3.90
2018-11-21T06:11:38.883Z,3.90
2018-11-21T06:14:06.897Z,3.90
2018-11-21T06:16:34.954Z,4.00
2018-11-21T06:19:02.679Z,4.00
2018-11-21T06:21:30.484Z,4.00
2018-11-21T06:31:21.225Z,4.20
2018-11-21T06:41:12.368Z,4.00
2018-11-21T06:43:40.100Z,4.00
2018-11-21T06:46:08.165Z,4.00
2018-11-21T06:48:35.541Z,4.10
2018-11-21T06:55:58.945Z,3.80
2018-11-21T07:13:14.076Z,3.90
2018-11-21T07:15:42.261Z,4.00
2018-11-21T07:18:09.983Z,4.00
2018-11-21T07:20:37.774Z,4.10
2018-11-21T07:23:05.567Z,4.10
2018-11-21T07:28:01.101Z,4.10
2018-11-21T07:32:56.771Z,4.00
2018-11-21T07:40:20.291Z,4.20
2018-11-21T07:42:49.343Z,4.20
2018-11-21T07:45:17.215Z,6.60
2018-11-21T07:47:45.203Z,4.00
2018-11-21T07:52:44.667Z,4.10
2018-11-21T08:09:13.557Z,4.30
2018-11-21T08:11:59.492Z,4.40
2018-11-21T08:14:49.325Z,4.50
2018-11-21T08:17:35.220Z,4.50
2018-11-21T08:20:31.010Z,4.60
2018-11-21T08:35:58.088Z,4.70
2018-11-21T08:40:53.267Z,4.70
2018-11-21T08:43:20.936Z,4.70
2018-11-21T08:45:49.046Z,4.80
2018-11-21T08:48:18.117Z,4.60
2018-11-21T08:50:46.168Z,4.70
2018-11-21T08:53:13.954Z,4.90
2018-11-21T08:55:41.786Z,4.80
2018-11-21T08:58:09.654Z,4.80
2018-11-21T09:00:37.169Z,4.80
2018-11-21T09:03:05.562Z,4.90
2018-11-21T09:17:52.870Z,5.10
2018-11-21T09:20:21.082Z,5.20
2018-11-21T09:22:49.151Z,5.20
2018-11-21T09:25:16.519Z,5.20
2018-11-21T09:30:17.460Z,5.00
2018-11-21T09:32:46.376Z,5.10
2018-11-21T09:35:15.044Z,5.10
2018-11-21T09:37:43.086Z,5.20
2018-11-21T09:40:12.243Z,5.20
2018-11-21T09:42:41.461Z,5.30
2018-11-21T09:45:11.408Z,5.30
2018-11-21T09:47:38.404Z,5.30
2018-11-21T09:50:08.384Z,5.30
2018-11-21T09:55:04.421Z,5.40
2018-11-21T10:12:44.938Z,5.60
2018-11-21T10:27:29.875Z,5.40
2018-11-21T10:29:57.963Z,5.50
2018-11-21T10:42:17.182Z,5.60
2018-11-21T10:49:40.500Z,5.60
2018-11-21T10:54:36.352Z,5.50
2018-11-21T11:05:00.717Z,5.70
2018-11-21T11:08:02.723Z,5.80
2018-11-21T11:10:52.788Z,5.70
2018-11-21T11:13:38.977Z,5.50
2018-11-21T11:16:26.559Z,5.40
2018-11-21T11:19:26.073Z,5.40
2018-11-21T11:22:28.166Z,5.30
2018-11-21T11:25:13.706Z,5.10
2018-11-21T11:27:59.663Z,5.40
2018-11-21T11:30:52.591Z,5.40
2018-11-21T11:33:38.095Z,5.50
2018-11-21T11:44:39.749Z,5.60
2018-11-21T11:50:16.175Z,5.60
2018-11-21T11:53:15.989Z,5.70
2018-11-21T11:56:01.741Z,5.70
2018-11-21T11:59:07.058Z,5.70
2018-11-21T12:01:55.369Z,5.50
2018-11-21T12:04:31.297Z,5.70
2018-11-21T12:07:16.891Z,5.70
2018-11-21T12:10:06.768Z,5.70
